sensor_id;sensor_type;location;lat;lon;timestamp;pressure;altitude;pressure_sealevel;temperature;humidity
55271;BME280;41132;47.162;9.470;2023-02-12T00:01:09;98366.06;;;-0.31;100.00
55271;BME280;41132;47.162;9.470;2023-02-12T00:03:35;98361.97;;;-0.38;100.00
55271;BME280;41132;47.162;9.470;2023-02-12T00:06:01;98369.53;;;-0.32;100.00
55271;BME280;41132;47.162;9.470;2023-02-12T00:08:26;98360.13;;;-0.35;100.00
55271;BME280;41132;47.162;9.470;2023-02-12T00:10:52;98353.09;;;-0.30;100.00
55271;BME280;41132;47.162;9.470;2023-02-12T00:13:17;98362.84;;;-0.39;100.00
55271;BME280;41132;47.162;9.470;2023-02-12T00:15:43;98355.81;;;-0.34;100.00
55271;BME280;41132;47.162;9.470;2023-02-12T00:18:09;98354.72;;;-0.57;100.00
55271;BME280;41132;47.162;9.470;2023-02-12T00:20:36;98371.88;;;-0.54;100.00
55271;BME280;41132;47.162;9.470;2023-02-12T00:23:02;98377.75;;;-0.49;100.00
55271;BME280;41132;47.162;9.470;2023-02-12T00:25:27;98369.28;;;-0.54;100.00
55271;BME280;41132;47.162;9.470;2023-02-12T00:27:52;98388.19;;;-0.54;100.00
55271;BME280;41132;47.162;9.470;2023-02-12T00:30:18;98353.25;;;-0.66;100.00
55271;BME280;41132;47.162;9.470;2023-02-12T00:32:46;98372.81;;;-0.58;100.00
55271;BME280;41132;47.162;9.470;2023-02-12T00:35:12;98358.22;;;-0.59;100.00
55271;BME280;41132;47.162;9.470;2023-02-12T00:37:37;98392.75;;;-0.64;100.00
55271;BME280;41132;47.162;9.470;2023-02-12T00:40:04;98395.97;;;-0.57;100.00
55271;BME280;41132;47.162;9.470;2023-02-12T00:42:30;98384.00;;;-0.59;100.00
55271;BME280;41132;47.162;9.470;2023-02-12T00:44:55;98395.22;;;-0.60;100.00
55271;BME280;41132;47.162;9.470;2023-02-12T00:47:20;98391.75;;;-0.59;100.00
55271;BME280;41132;47.162;9.470;2023-02-12T00:49:46;98384.91;;;-0.60;100.00
55271;BME280;41132;47.162;9.470;2023-02-12T00:52:11;98384.91;;;-0.60;100.00
55271;BME280;41132;47.162;9.470;2023-02-12T00:54:36;98383.38;;;-0.68;100.00
55271;BME280;41132;47.162;9.470;2023-02-12T00:57:02;98366.38;;;-0.75;100.00
55271;BME280;41132;47.162;9.470;2023-02-12T00:59:28;98395.31;;;-0.64;100.00
55271;BME280;41132;47.162;9.470;2023-02-12T01:01:54;98396.16;;;-0.63;100.00
55271;BME280;41132;47.162;9.470;2023-02-12T01:04:20;98398.56;;;-0.57;100.00
55271;BME280;41132;47.162;9.470;2023-02-12T01:06:46;98372.19;;;-0.68;100.00
55271;BME280;41132;47.162;9.470;2023-02-12T01:09:12;98390.78;;;-0.55;100.00
55271;BME280;41132;47.162;9.470;2023-02-12T01:11:37;98377.16;;;-0.59;100.00
55271;BME280;41132;47.162;9.470;2023-02-12T01:14:04;98388.31;;;-0.58;100.00
55271;BME280;41132;47.162;9.470;2023-02-12T01:16:31;98378.53;;;-0.47;100.00
55271;BME280;41132;47.162;9.470;2023-02-12T01:18:58;98371.25;;;-0.33;100.00
55271;BME280;41132;47.162;9.470;2023-02-12T01:21:26;98378.91;;;-0.30;100.00
55271;BME280;41132;47.162;9.470;2023-02-12T01:23:52;98371.25;;;-0.33;100.00
55271;BME280;41132;47.162;9.470;2023-02-12T01:26:18;98365.41;;;-0.38;100.00
55271;BME280;41132;47.162;9.470;2023-02-12T01:28:51;98362.13;;;-0.45;100.00
55271;BME280;41132;47.162;9.470;2023-02-12T01:31:20;98378.28;;;-0.38;100.00
55271;BME280;41132;47.162;9.470;2023-02-12T01:33:47;98395.91;;;-0.54;100.00
55271;BME280;41132;47.162;9.470;2023-02-12T01:36:13;98386.03;;;-0.71;100.00
55271;BME280;41132;47.162;9.470;2023-02-12T01:38:38;98388.38;;;-0.61;100.00
55271;BME280;41132;47.162;9.470;2023-02-12T01:41:06;98386.09;;;-0.72;100.00
55271;BME280;41132;47.162;9.470;2023-02-12T01:43:33;98383.69;;;-0.80;100.00
55271;BME280;41132;47.162;9.470;2023-02-12T01:45:59;98388.69;;;-0.74;100.00
55271;BME280;41132;47.162;9.470;2023-02-12T01:48:27;98375.16;;;-0.82;100.00
55271;BME280;41132;47.162;9.470;2023-02-12T01:50:54;98383.63;;;-0.77;100.00
55271;BME280;41132;47.162;9.470;2023-02-12T01:53:23;98359.84;;;-0.88;100.00
55271;BME280;41132;47.162;9.470;2023-02-12T01:55:55;98373.44;;;-0.81;100.00
55271;BME280;41132;47.162;9.470;2023-02-12T01:58:23;98382.00;;;-0.81;100.00
55271;BME280;41132;47.162;9.470;2023-02-12T02:00:51;98370.63;;;-0.72;100.00
55271;BME280;41132;47.162;9.470;2023-02-12T02:03:16;98364.16;;;-0.56;100.00
55271;BME280;41132;47.162;9.470;2023-02-12T02:05:51;98367.47;;;-0.52;100.00
55271;BME280;41132;47.162;9.470;2023-02-12T02:08:19;98363.84;;;-0.76;100.00
55271;BME280;41132;47.162;9.470;2023-02-12T02:10:45;98347.28;;;-0.36;100.00
55271;BME280;41132;47.162;9.470;2023-02-12T02:13:10;98348.47;;;-0.48;100.00
55271;BME280;41132;47.162;9.470;2023-02-12T02:15:58;98352.19;;;-0.58;100.00
55271;BME280;41132;47.162;9.470;2023-02-12T02:18:36;98347.84;;;-0.56;100.00
55271;BME280;41132;47.162;9.470;2023-02-12T02:24:36;98342.72;;;-0.58;100.00
55271;BME280;41132;47.162;9.470;2023-02-12T02:32:43;98337.53;;;-0.56;100.00
55271;BME280;41132;47.162;9.470;2023-02-12T02:38:30;98332.63;;;-0.66;100.00
55271;BME280;41132;47.162;9.470;2023-02-12T02:41:18;98328.00;;;-0.86;100.00
55271;BME280;41132;47.162;9.470;2023-02-12T02:43:48;98332.19;;;-0.81;100.00
55271;BME280;41132;47.162;9.470;2023-02-12T02:46:30;98330.81;;;-0.95;100.00
55271;BME280;41132;47.162;9.470;2023-02-12T02:49:03;98328.34;;;-0.99;100.00
55271;BME280;41132;47.162;9.470;2023-02-12T02:51:33;98345.50;;;-0.98;100.00
55271;BME280;41132;47.162;9.470;2023-02-12T02:54:17;98346.19;;;-0.92;100.00
55271;BME280;41132;47.162;9.470;2023-02-12T02:56:48;98344.63;;;-0.97;100.00
55271;BME280;41132;47.162;9.470;2023-02-12T02:59:19;98338.47;;;-0.93;100.00
55271;BME280;41132;47.162;9.470;2023-02-12T03:01:55;98332.66;;;-1.00;100.00
55271;BME280;41132;47.162;9.470;2023-02-12T03:04:39;98335.19;;;-0.98;100.00
55271;BME280;41132;47.162;9.470;2023-02-12T03:07:12;98315.63;;;-1.07;100.00
55271;BME280;41132;47.162;9.470;2023-02-12T03:09:51;98327.59;;;-1.05;100.00
55271;BME280;41132;47.162;9.470;2023-02-12T03:12:22;98317.22;;;-1.01;100.00
55271;BME280;41132;47.162;9.470;2023-02-12T03:15:18;98325.91;;;-1.06;100.00
55271;BME280;41132;47.162;9.470;2023-02-12T03:17:43;98344.09;;;-1.12;100.00
55271;BME280;41132;47.162;9.470;2023-02-12T03:20:23;98342.00;;;-0.96;100.00
55271;BME280;41132;47.162;9.470;2023-02-12T03:23:16;98329.53;;;-1.13;100.00
55271;BME280;41132;47.162;9.470;2023-02-12T03:25:52;98335.50;;;-1.11;100.00
55271;BME280;41132;47.162;9.470;2023-02-12T03:28:41;98325.34;;;-1.17;100.00
55271;BME280;41132;47.162;9.470;2023-02-12T03:31:18;98335.91;;;-1.28;100.00
55271;BME280;41132;47.162;9.470;2023-02-12T03:34:06;98333.06;;;-1.15;100.00
55271;BME280;41132;47.162;9.470;2023-02-12T03:36:50;98334.97;;;-1.23;100.00
55271;BME280;41132;47.162;9.470;2023-02-12T03:39:34;98329.09;;;-1.30;100.00
55271;BME280;41132;47.162;9.470;2023-02-12T03:42:08;98331.53;;;-1.24;100.00
55271;BME280;41132;47.162;9.470;2023-02-12T03:44:56;98337.25;;;-1.11;100.00
55271;BME280;41132;47.162;9.470;2023-02-12T03:47:48;98334.84;;;-1.19;100.00
55271;BME280;41132;47.162;9.470;2023-02-12T03:50:19;98333.41;;;-1.31;100.00
55271;BME280;41132;47.162;9.470;2023-02-12T03:52:48;98324.03;;;-1.33;100.00
55271;BME280;41132;47.162;9.470;2023-02-12T03:55:15;98320.84;;;-1.43;100.00
55271;BME280;41132;47.162;9.470;2023-02-12T03:57:48;98326.63;;;-1.33;100.00
55271;BME280;41132;47.162;9.470;2023-02-12T04:00:21;98322.38;;;-1.36;100.00
55271;BME280;41132;47.162;9.470;2023-02-12T04:02:47;98324.97;;;-1.36;100.00
55271;BME280;41132;47.162;9.470;2023-02-12T04:05:23;98332.53;;;-1.30;100.00
55271;BME280;41132;47.162;9.470;2023-02-12T04:07:50;98332.63;;;-1.34;100.00
55271;BME280;41132;47.162;9.470;2023-02-12T04:10:17;98324.09;;;-1.36;100.00
55271;BME280;41132;47.162;9.470;2023-02-12T04:12:58;98319.34;;;-1.17;100.00
55271;BME280;41132;47.162;9.470;2023-02-12T04:15:50;98328.25;;;-1.29;100.00
55271;BME280;41132;47.162;9.470;2023-02-12T04:24:02;98332.69;;;-1.36;100.00
55271;BME280;41132;47.162;9.470;2023-02-12T04:26:54;98329.47;;;-1.45;100.00
55271;BME280;41132;47.162;9.470;2023-02-12T04:32:09;98344.97;;;-1.47;100.00
55271;BME280;41132;47.162;9.470;2023-02-12T04:35:01;98358.47;;;-1.37;100.00
55271;BME280;41132;47.162;9.470;2023-02-12T04:37:43;98357.81;;;-1.45;100.00
55271;BME280;41132;47.162;9.470;2023-02-12T04:40:16;98349.19;;;-1.43;100.00
55271;BME280;41132;47.162;9.470;2023-02-12T04:42:47;98346.59;;;-1.43;100.00
55271;BME280;41132;47.162;9.470;2023-02-12T04:45:18;98339.59;;;-1.38;100.00
55271;BME280;41132;47.162;9.470;2023-02-12T04:47:45;98349.22;;;-1.44;100.00
55271;BME280;41132;47.162;9.470;2023-02-12T04:50:11;98349.84;;;-1.36;100.00
55271;BME280;41132;47.162;9.470;2023-02-12T04:52:36;98354.28;;;-1.41;100.00
55271;BME280;41132;47.162;9.470;2023-02-12T04:55:02;98346.53;;;-1.40;100.00
55271;BME280;41132;47.162;9.470;2023-02-12T04:57:27;98343.56;;;-1.60;100.00
55271;BME280;41132;47.162;9.470;2023-02-12T04:59:53;98358.78;;;-1.50;100.00
55271;BME280;41132;47.162;9.470;2023-02-12T05:02:18;98341.09;;;-1.65;100.00
55271;BME280;41132;47.162;9.470;2023-02-12T05:04:43;98355.53;;;-1.58;100.00
55271;BME280;41132;47.162;9.470;2023-02-12T05:07:10;98364.09;;;-1.57;100.00
55271;BME280;41132;47.162;9.470;2023-02-12T05:09:35;98357.47;;;-1.67;100.00
55271;BME280;41132;47.162;9.470;2023-02-12T05:12:01;98367.47;;;-1.54;100.00
55271;BME280;41132;47.162;9.470;2023-02-12T05:14:26;98377.16;;;-1.65;100.00
55271;BME280;41132;47.162;9.470;2023-02-12T05:16:51;98385.75;;;-1.66;100.00
55271;BME280;41132;47.162;9.470;2023-02-12T05:19:17;98386.75;;;-1.73;100.00
55271;BME280;41132;47.162;9.470;2023-02-12T05:21:42;98392.69;;;-1.68;100.00
55271;BME280;41132;47.162;9.470;2023-02-12T05:24:08;98407.94;;;-1.59;100.00
55271;BME280;41132;47.162;9.470;2023-02-12T05:26:33;98396.00;;;-1.64;100.00
55271;BME280;41132;47.162;9.470;2023-02-12T05:28:59;98393.53;;;-1.69;100.00
55271;BME280;41132;47.162;9.470;2023-02-12T05:31:24;98401.09;;;-1.61;100.00
55271;BME280;41132;47.162;9.470;2023-02-12T05:33:49;98393.34;;;-1.60;100.00
55271;BME280;41132;47.162;9.470;2023-02-12T05:36:18;98390.78;;;-1.61;100.00
55271;BME280;41132;47.162;9.470;2023-02-12T05:38:44;98381.56;;;-1.70;100.00
55271;BME280;41132;47.162;9.470;2023-02-12T05:41:17;98388.19;;;-1.60;100.00
55271;BME280;41132;47.162;9.470;2023-02-12T05:43:44;98394.94;;;-1.54;100.00
55271;BME280;41132;47.162;9.470;2023-02-12T05:46:10;98383.06;;;-1.61;100.00
55271;BME280;41132;47.162;9.470;2023-02-12T05:48:36;98381.47;;;-1.67;100.00
55271;BME280;41132;47.162;9.470;2023-02-12T05:51:08;98381.41;;;-1.64;100.00
55271;BME280;41132;47.162;9.470;2023-02-12T05:53:34;98391.50;;;-1.55;100.00
55271;BME280;41132;47.162;9.470;2023-02-12T05:56:36;98395.06;;;-1.60;100.00
55271;BME280;41132;47.162;9.470;2023-02-12T05:59:06;98392.38;;;-1.54;100.00
55271;BME280;41132;47.162;9.470;2023-02-12T06:01:38;98392.31;;;-1.53;100.00
55271;BME280;41132;47.162;9.470;2023-02-12T06:04:06;98405.88;;;-1.44;100.00
55271;BME280;41132;47.162;9.470;2023-02-12T06:06:32;98391.66;;;-1.61;100.00
55271;BME280;41132;47.162;9.470;2023-02-12T06:08:59;98408.72;;;-1.57;100.00
55271;BME280;41132;47.162;9.470;2023-02-12T06:11:25;98416.81;;;-1.74;100.00
55271;BME280;41132;47.162;9.470;2023-02-12T06:13:51;98401.13;;;-1.63;100.00
55271;BME280;41132;47.162;9.470;2023-02-12T06:16:22;98397.78;;;-1.66;100.00
55271;BME280;41132;47.162;9.470;2023-02-12T06:18:49;98385.84;;;-1.71;100.00
55271;BME280;41132;47.162;9.470;2023-02-12T06:21:16;98383.97;;;-1.64;100.00
55271;BME280;41132;47.162;9.470;2023-02-12T06:23:42;98372.59;;;-1.52;100.00
55271;BME280;41132;47.162;9.470;2023-02-12T06:26:08;98379.59;;;-1.59;100.00
55271;BME280;41132;47.162;9.470;2023-02-12T06:28:33;98385.41;;;-1.51;100.00
55271;BME280;41132;47.162;9.470;2023-02-12T06:30:59;98398.44;;;-1.21;100.00
55271;BME280;41132;47.162;9.470;2023-02-12T06:33:24;98399.50;;;-1.30;100.00
55271;BME280;41132;47.162;9.470;2023-02-12T06:35:50;98380.28;;;-1.15;100.00
55271;BME280;41132;47.162;9.470;2023-02-12T06:38:15;98367.97;;;-1.39;100.00
55271;BME280;41132;47.162;9.470;2023-02-12T06:40:41;98376.63;;;-1.42;100.00
55271;BME280;41132;47.162;9.470;2023-02-12T06:43:06;98378.50;;;-1.50;100.00
55271;BME280;41132;47.162;9.470;2023-02-12T06:45:32;98369.13;;;-1.53;100.00
55271;BME280;41132;47.162;9.470;2023-02-12T06:47:58;98386.81;;;-1.37;100.00
55271;BME280;41132;47.162;9.470;2023-02-12T06:50:24;98380.84;;;-1.39;100.00
55271;BME280;41132;47.162;9.470;2023-02-12T06:52:49;98368.06;;;-1.42;100.00
55271;BME280;41132;47.162;9.470;2023-02-12T06:55:15;98378.28;;;-1.39;100.00
55271;BME280;41132;47.162;9.470;2023-02-12T06:57:41;98381.78;;;-1.42;100.00
55271;BME280;41132;47.162;9.470;2023-02-12T07:00:07;98386.00;;;-1.39;100.00
55271;BME280;41132;47.162;9.470;2023-02-12T07:02:32;98384.66;;;-1.54;100.00
55271;BME280;41132;47.162;9.470;2023-02-12T07:04:58;98388.78;;;-1.49;100.00
55271;BME280;41132;47.162;9.470;2023-02-12T07:07:23;98371.47;;;-1.79;100.00
55271;BME280;41132;47.162;9.470;2023-02-12T07:09:49;98381.47;;;-1.67;100.00
55271;BME280;41132;47.162;9.470;2023-02-12T07:12:14;98383.16;;;-1.66;100.00
55271;BME280;41132;47.162;9.470;2023-02-12T07:14:39;98382.31;;;-1.66;100.00
55271;BME280;41132;47.162;9.470;2023-02-12T07:17:05;98370.38;;;-1.69;100.00
55271;BME280;41132;47.162;9.470;2023-02-12T07:19:32;98385.00;;;-1.71;100.00
55271;BME280;41132;47.162;9.470;2023-02-12T07:21:57;98368.72;;;-1.72;100.00
55271;BME280;41132;47.162;9.470;2023-02-12T07:24:22;98380.59;;;-1.66;100.00
55271;BME280;41132;47.162;9.470;2023-02-12T07:26:48;98372.34;;;-1.80;100.00
55271;BME280;41132;47.162;9.470;2023-02-12T07:29:13;98379.09;;;-1.75;100.00
55271;BME280;41132;47.162;9.470;2023-02-12T07:31:39;98369.44;;;-1.65;100.00
55271;BME280;41132;47.162;9.470;2023-02-12T07:34:05;98377.03;;;-1.59;100.00
55271;BME280;41132;47.162;9.470;2023-02-12T07:36:31;98363.94;;;-1.50;100.00
55271;BME280;41132;47.162;9.470;2023-02-12T07:38:58;98377.47;;;-1.41;100.00
55271;BME280;41132;47.162;9.470;2023-02-12T07:41:28;98368.47;;;-1.25;100.00
55271;BME280;41132;47.162;9.470;2023-02-12T07:43:59;98345.03;;;-1.50;100.00
55271;BME280;41132;47.162;9.470;2023-02-12T07:46:30;98351.69;;;-1.40;100.00
55271;BME280;41132;47.162;9.470;2023-02-12T07:48:57;98366.06;;;-1.31;100.00
55271;BME280;41132;47.162;9.470;2023-02-12T07:51:24;98333.13;;;-1.54;100.00
55271;BME280;41132;47.162;9.470;2023-02-12T07:53:50;98354.25;;;-1.40;100.00
55271;BME280;41132;47.162;9.470;2023-02-12T07:56:18;98365.19;;;-1.30;100.00
55271;BME280;41132;47.162;9.470;2023-02-12T07:58:45;98370.19;;;-1.24;100.00
55271;BME280;41132;47.162;9.470;2023-02-12T08:01:20;98369.47;;;-1.29;100.00
55271;BME280;41132;47.162;9.470;2023-02-12T08:03:47;98349.22;;;-1.44;100.00
55271;BME280;41132;47.162;9.470;2023-02-12T08:06:15;98371.16;;;-0.94;100.00
55271;BME280;41132;47.162;9.470;2023-02-12T08:08:41;98366.09;;;-0.97;100.00
55271;BME280;41132;47.162;9.470;2023-02-12T08:11:08;98375.78;;;-0.72;100.00
55271;BME280;41132;47.162;9.470;2023-02-12T08:13:35;98374.75;;;-0.67;100.00
55271;BME280;41132;47.162;9.470;2023-02-12T08:16:06;98377.31;;;-0.34;100.00
55271;BME280;41132;47.162;9.470;2023-02-12T08:18:32;98383.88;;;0.08;100.00
55271;BME280;41132;47.162;9.470;2023-02-12T08:21:10;98367.28;;;0.45;100.00
55271;BME280;41132;47.162;9.470;2023-02-12T08:23:36;98371.22;;;0.85;100.00
55271;BME280;41132;47.162;9.470;2023-02-12T08:26:28;98361.59;;;0.88;100.00
55271;BME280;41132;47.162;9.470;2023-02-12T08:28:59;98370.78;;;0.97;100.00
55271;BME280;41132;47.162;9.470;2023-02-12T08:31:28;98363.22;;;1.17;100.00
55271;BME280;41132;47.162;9.470;2023-02-12T08:33:54;98353.63;;;1.46;100.00
55271;BME280;41132;47.162;9.470;2023-02-12T08:36:23;98359.25;;;1.81;100.00
55271;BME280;41132;47.162;9.470;2023-02-12T08:38:49;98340.41;;;2.01;96.48
55271;BME280;41132;47.162;9.470;2023-02-12T08:41:21;98349.06;;;2.00;100.00
55271;BME280;41132;47.162;9.470;2023-02-12T08:43:48;98346.06;;;2.34;98.95
55271;BME280;41132;47.162;9.470;2023-02-12T08:46:19;98340.63;;;2.40;96.52
55271;BME280;41132;47.162;9.470;2023-02-12T08:48:45;98323.78;;;2.06;99.68
55271;BME280;41132;47.162;9.470;2023-02-12T08:51:13;98337.41;;;2.12;98.66
55271;BME280;41132;47.162;9.470;2023-02-12T08:53:41;98332.19;;;2.57;95.25
55271;BME280;41132;47.162;9.470;2023-02-12T08:56:09;98326.03;;;2.82;93.54
55271;BME280;41132;47.162;9.470;2023-02-12T08:58:35;98326.91;;;2.81;97.01
55271;BME280;41132;47.162;9.470;2023-02-12T09:01:02;98327.06;;;3.19;93.87
55271;BME280;41132;47.162;9.470;2023-02-12T09:03:27;98313.84;;;3.25;90.94
55271;BME280;41132;47.162;9.470;2023-02-12T09:05:52;98313.84;;;3.25;88.95
55271;BME280;41132;47.162;9.470;2023-02-12T09:08:18;98315.94;;;3.56;91.82
55271;BME280;41132;47.162;9.470;2023-02-12T09:10:44;98321.53;;;3.26;87.74
55271;BME280;41132;47.162;9.470;2023-02-12T09:13:11;98314.88;;;3.60;89.35
55271;BME280;41132;47.162;9.470;2023-02-12T09:15:43;98310.41;;;3.64;86.88
55271;BME280;41132;47.162;9.470;2023-02-12T09:18:10;98315.63;;;3.43;91.65
55271;BME280;41132;47.162;9.470;2023-02-12T09:20:42;98310.72;;;3.95;85.19
55271;BME280;41132;47.162;9.470;2023-02-12T09:23:10;98306.28;;;3.79;84.56
55271;BME280;41132;47.162;9.470;2023-02-12T09:25:44;98314.69;;;3.84;85.37
55271;BME280;41132;47.162;9.470;2023-02-12T09:28:11;98311.63;;;4.13;83.95
55271;BME280;41132;47.162;9.470;2023-02-12T09:30:37;98313.28;;;4.14;77.86
55271;BME280;41132;47.162;9.470;2023-02-12T09:33:03;98320.25;;;4.14;84.19
55271;BME280;41132;47.162;9.470;2023-02-12T09:35:30;98317.72;;;3.93;85.52
55271;BME280;41132;47.162;9.470;2023-02-12T09:37:57;98316.81;;;4.13;80.33
55271;BME280;41132;47.162;9.470;2023-02-12T09:45:41;98305.56;;;3.94;81.27
55271;BME280;41132;47.162;9.470;2023-02-12T09:53:13;98310.28;;;4.60;75.72
55271;BME280;41132;47.162;9.470;2023-02-12T09:55:40;98304.47;;;4.36;78.51
55271;BME280;41132;47.162;9.470;2023-02-12T09:58:13;98312.44;;;4.87;80.92
55271;BME280;41132;47.162;9.470;2023-02-12T10:00:40;98303.63;;;4.54;77.62
55271;BME280;41132;47.162;9.470;2023-02-12T10:03:16;98296.94;;;4.49;78.04
55271;BME280;41132;47.162;9.470;2023-02-12T10:05:49;98275.69;;;4.41;76.06
55271;BME280;41132;47.162;9.470;2023-02-12T10:11:18;98293.84;;;4.77;74.44
55271;BME280;41132;47.162;9.470;2023-02-12T10:16:54;98287.81;;;5.11;78.04
55271;BME280;41132;47.162;9.470;2023-02-12T10:22:21;98289.69;;;5.25;71.98
55271;BME280;41132;47.162;9.470;2023-02-12T10:27:35;98279.16;;;5.44;71.92
55271;BME280;41132;47.162;9.470;2023-02-12T10:30:05;98266.88;;;5.63;71.25
55271;BME280;41132;47.162;9.470;2023-02-12T10:32:38;98274.50;;;6.00;70.68
55271;BME280;41132;47.162;9.470;2023-02-12T10:35:12;98277.06;;;5.84;72.47
55271;BME280;41132;47.162;9.470;2023-02-12T10:37:51;98271.84;;;5.84;68.01
55271;BME280;41132;47.162;9.470;2023-02-12T10:40:27;98270.03;;;6.02;68.65
55271;BME280;41132;47.162;9.470;2023-02-12T10:42:57;98265.69;;;5.85;66.81
55271;BME280;41132;47.162;9.470;2023-02-12T10:45:34;98251.00;;;5.84;67.85
55271;BME280;41132;47.162;9.470;2023-02-12T10:48:14;98248.25;;;6.03;69.63
55271;BME280;41132;47.162;9.470;2023-02-12T10:53:39;98238.56;;;6.67;66.49
55271;BME280;41132;47.162;9.470;2023-02-12T10:58:53;98222.63;;;6.41;67.17
55271;BME280;41132;47.162;9.470;2023-02-12T11:01:29;98222.00;;;6.22;66.42
55271;BME280;41132;47.162;9.470;2023-02-12T11:03:57;98221.47;;;6.31;67.56
55271;BME280;41132;47.162;9.470;2023-02-12T11:06:31;98221.34;;;6.02;69.52
55271;BME280;41132;47.162;9.470;2023-02-12T11:08:57;98215.19;;;5.88;68.94
55271;BME280;41132;47.162;9.470;2023-02-12T11:11:28;98208.81;;;5.93;70.65
55271;BME280;41132;47.162;9.470;2023-02-12T11:16:34;98207.63;;;5.83;69.92
55271;BME280;41132;47.162;9.470;2023-02-12T11:19:04;98209.97;;;5.88;71.07
55271;BME280;41132;47.162;9.470;2023-02-12T11:21:30;98208.63;;;5.64;69.29
55271;BME280;41132;47.162;9.470;2023-02-12T11:23:56;98199.53;;;5.72;70.33
55271;BME280;41132;47.162;9.470;2023-02-12T11:26:27;98210.13;;;5.69;68.51
55271;BME280;41132;47.162;9.470;2023-02-12T11:29:01;98197.13;;;5.69;68.36
55271;BME280;41132;47.162;9.470;2023-02-12T11:31:29;98187.78;;;5.64;70.39
55271;BME280;41132;47.162;9.470;2023-02-12T11:36:39;98188.38;;;5.70;69.05
55271;BME280;41132;47.162;9.470;2023-02-12T11:39:05;98184.16;;;5.67;69.87
55271;BME280;41132;47.162;9.470;2023-02-12T11:41:41;98179.97;;;5.64;70.27
55271;BME280;41132;47.162;9.470;2023-02-12T11:44:12;98181.22;;;5.73;69.33
55271;BME280;41132;47.162;9.470;2023-02-12T11:46:47;98174.25;;;5.58;70.66
55271;BME280;41132;47.162;9.470;2023-02-12T11:49:21;98173.25;;;5.60;70.16
55271;BME280;41132;47.162;9.470;2023-02-12T11:51:47;98167.63;;;5.68;69.42
55271;BME280;41132;47.162;9.470;2023-02-12T11:54:23;98162.66;;;5.63;68.84
55271;BME280;41132;47.162;9.470;2023-02-12T11:56:49;98156.84;;;5.58;70.34
55271;BME280;41132;47.162;9.470;2023-02-12T11:59:28;98155.94;;;5.59;70.71
55271;BME280;41132;47.162;9.470;2023-02-12T12:01:57;98145.59;;;5.74;69.34
55271;BME280;41132;47.162;9.470;2023-02-12T12:04:26;98153.25;;;5.61;70.13
55271;BME280;41132;47.162;9.470;2023-02-12T12:07:20;98144.84;;;5.72;70.81
55271;BME280;41132;47.162;9.470;2023-02-12T12:09:57;98146.28;;;5.77;68.74
55271;BME280;41132;47.162;9.470;2023-02-12T12:12:37;98134.59;;;5.69;69.91
55271;BME280;41132;47.162;9.470;2023-02-12T12:15:19;98140.31;;;5.75;69.53
55271;BME280;41132;47.162;9.470;2023-02-12T12:18:25;98126.25;;;5.78;70.80
55271;BME280;41132;47.162;9.470;2023-02-12T12:23:48;98125.31;;;5.79;71.67
55271;BME280;41132;47.162;9.470;2023-02-12T12:26:25;98131.72;;;5.89;72.00
55271;BME280;41132;47.162;9.470;2023-02-12T12:32:05;98127.41;;;5.88;71.30
55271;BME280;41132;47.162;9.470;2023-02-12T12:34:31;98127.53;;;6.02;71.87
55271;BME280;41132;47.162;9.470;2023-02-12T12:44:58;98127.00;;;6.12;72.76
55271;BME280;41132;47.162;9.470;2023-02-12T12:53:59;98126.50;;;6.05;69.54
55271;BME280;41132;47.162;9.470;2023-02-12T13:10:49;98119.06;;;6.43;72.95
55271;BME280;41132;47.162;9.470;2023-02-12T13:21:31;98115.44;;;6.46;73.29
55271;BME280;41132;47.162;9.470;2023-02-12T13:26:49;98123.19;;;6.47;72.65
55271;BME280;41132;47.162;9.470;2023-02-12T13:29:25;98121.13;;;6.53;73.12
55271;BME280;41132;47.162;9.470;2023-02-12T13:31:56;98113.50;;;6.64;72.61
55271;BME280;41132;47.162;9.470;2023-02-12T13:34:26;98107.47;;;6.63;72.20
55271;BME280;41132;47.162;9.470;2023-02-12T13:36:54;98107.94;;;6.70;72.00
55271;BME280;41132;47.162;9.470;2023-02-12T13:45:42;98110.34;;;6.73;71.21
55271;BME280;41132;47.162;9.470;2023-02-12T13:51:20;98108.22;;;6.80;70.31
55271;BME280;41132;47.162;9.470;2023-02-12T13:54:00;98105.31;;;6.70;69.65
55271;BME280;41132;47.162;9.470;2023-02-12T13:56:42;98107.47;;;6.78;70.30
55271;BME280;41132;47.162;9.470;2023-02-12T14:02:05;98107.94;;;6.70;71.24
55271;BME280;41132;47.162;9.470;2023-02-12T14:07:18;98100.53;;;6.62;71.00
55271;BME280;41132;47.162;9.470;2023-02-12T14:09:59;98101.38;;;6.63;70.39
55271;BME280;41132;47.162;9.470;2023-02-12T14:15:36;98096.63;;;6.69;68.50
55271;BME280;41132;47.162;9.470;2023-02-12T14:17:53;98095.31;;;6.77;65.79
55271;BME280;41132;47.162;9.470;2023-02-12T14:27:44;98092.81;;;6.89;62.09
55271;BME280;41132;47.162;9.470;2023-02-12T14:37:58;98080.88;;;6.85;60.22
55271;BME280;41132;47.162;9.470;2023-02-12T14:43:02;98093.56;;;6.92;58.50
55271;BME280;41132;47.162;9.470;2023-02-12T14:45:34;98083.03;;;6.93;58.58
55271;BME280;41132;47.162;9.470;2023-02-12T14:48:02;98085.38;;;6.98;58.44
55271;BME280;41132;47.162;9.470;2023-02-12T14:50:30;98084.97;;;7.04;58.60
55271;BME280;41132;47.162;9.470;2023-02-12T14:53:09;98087.03;;;6.99;59.35
55271;BME280;41132;47.162;9.470;2023-02-12T14:55:44;98088.88;;;6.97;60.36
55271;BME280;41132;47.162;9.470;2023-02-12T14:58:19;98092.47;;;6.81;60.61
55271;BME280;41132;47.162;9.470;2023-02-12T15:00:47;98082.56;;;6.58;62.13
55271;BME280;41132;47.162;9.470;2023-02-12T15:03:37;98099.03;;;6.58;61.18
55271;BME280;41132;47.162;9.470;2023-02-12T15:08:50;98097.03;;;6.33;63.84
55271;BME280;41132;47.162;9.470;2023-02-12T15:11:25;98104.31;;;6.28;63.71
55271;BME280;41132;47.162;9.470;2023-02-12T15:16:44;98098.41;;;6.10;65.56
55271;BME280;41132;47.162;9.470;2023-02-12T15:21:50;98088.00;;;5.94;65.70
55271;BME280;41132;47.162;9.470;2023-02-12T15:24:23;98092.53;;;5.91;66.43
55271;BME280;41132;47.162;9.470;2023-02-12T15:26:54;98093.63;;;5.86;67.98
55271;BME280;41132;47.162;9.470;2023-02-12T15:29:35;98094.72;;;5.82;67.76
55271;BME280;41132;47.162;9.470;2023-02-12T15:32:05;98097.69;;;5.76;68.50
55271;BME280;41132;47.162;9.470;2023-02-12T15:34:33;98094.00;;;5.64;70.14
55271;BME280;41132;47.162;9.470;2023-02-12T15:37:03;98087.91;;;5.50;71.19